createdAt,value
2024-03-16T00:00:08.473Z,68.31
2024-03-16T00:01:08.680Z,68.25
2024-03-16T00:02:08.467Z,68.37
2024-03-16T00:03:08.477Z,69.14
2024-03-16T00:04:33.283Z,68.97
2024-03-16T00:05:08.546Z,68.94
2024-03-16T00:06:08.469Z,68.91
2024-03-16T00:07:32.803Z,68.86
2024-03-16T00:10:50.664Z,69.28
2024-03-16T00:11:17.219Z,69.29
2024-03-16T00:18:12.389Z,69.06
2024-03-16T00:18:46.692Z,68.94
2024-03-16T00:25:36.817Z,70.42
2024-03-16T00:26:08.357Z,70.86
2024-03-16T00:27:08.365Z,71.90
2024-03-16T00:30:40.961Z,73.50
2024-03-16T00:31:17.071Z,73.34
2024-03-16T00:32:44.137Z,73.23
2024-03-16T00:33:17.052Z,73.08
2024-03-16T00:34:17.149Z,73.00
2024-03-16T00:41:07.386Z,71.13
2024-03-16T00:41:38.802Z,70.80
2024-03-16T00:46:54.471Z,70.97
2024-03-16T00:47:25.194Z,71.62
2024-03-16T00:48:25.164Z,71.93
2024-03-16T00:49:25.211Z,71.93
2024-03-16T00:52:57.836Z,71.06
2024-03-16T00:53:33.949Z,70.59
2024-03-16T01:05:16.771Z,70.52
2024-03-16T01:05:50.741Z,70.17
2024-03-16T01:10:38.852Z,69.30
2024-03-16T01:11:03.830Z,68.90
2024-03-16T01:12:03.791Z,69.55
2024-03-16T01:13:03.909Z,70.38
2024-03-16T01:14:03.775Z,70.70
2024-03-16T01:24:34.027Z,78.23
2024-03-16T01:25:07.096Z,77.60
2024-03-16T01:26:06.975Z,76.95
2024-03-16T01:27:06.949Z,76.61
2024-03-16T01:29:35.640Z,74.06
2024-03-16T01:30:11.275Z,74.34
2024-03-16T01:31:38.660Z,75.15
2024-03-16T01:32:11.290Z,75.04
2024-03-16T01:38:06.581Z,74.54
2024-03-16T01:38:37.218Z,74.05
2024-03-16T01:39:37.270Z,73.61
2024-03-16T01:40:37.298Z,73.02
2024-03-16T01:41:37.338Z,73.01
2024-03-16T01:42:37.423Z,73.13
2024-03-16T01:47:17.479Z,73.92
2024-03-16T01:47:50.522Z,74.25
2024-03-16T01:48:50.499Z,74.87
2024-03-16T01:49:50.456Z,74.99
2024-03-16T01:50:50.464Z,75.38
2024-03-16T01:51:50.483Z,75.38
2024-03-16T01:52:50.461Z,74.86
2024-03-16T01:53:50.472Z,74.62
2024-03-16T01:54:50.528Z,74.19
2024-03-16T02:03:57.870Z,72.50
2024-03-16T02:04:58.285Z,72.93
2024-03-16T02:13:30.756Z,72.87
2024-03-16T02:14:03.461Z,73.50
2024-03-16T02:15:03.477Z,75.07
2024-03-16T02:17:42.793Z,75.86
2024-03-16T02:18:15.882Z,75.54
2024-03-16T02:19:15.897Z,75.27
2024-03-16T02:25:10.441Z,74.33
2024-03-16T02:30:25.789Z,73.03
2024-03-16T02:30:58.744Z,73.11
2024-03-16T02:31:58.719Z,73.78
2024-03-16T02:32:58.747Z,74.42
2024-03-16T02:33:58.753Z,74.95
2024-03-16T02:34:58.699Z,74.61
2024-03-16T02:35:58.698Z,75.17
2024-03-16T02:36:58.729Z,75.39
2024-03-16T02:37:58.707Z,75.06
2024-03-16T02:45:51.858Z,73.34
2024-03-16T02:46:24.799Z,72.98
2024-03-16T02:52:14.810Z,71.59
2024-03-16T02:52:47.753Z,71.38
2024-03-16T02:53:47.748Z,71.32
2024-03-16T02:54:47.778Z,71.29
2024-03-16T02:57:18.285Z,71.33
2024-03-16T03:00:27.817Z,71.12
2024-03-16T03:01:00.868Z,71.29
2024-03-16T03:02:00.844Z,71.25
2024-03-16T03:03:00.780Z,73.45
2024-03-16T03:04:00.831Z,74.04
2024-03-16T03:05:00.808Z,74.43
2024-03-16T03:06:00.825Z,74.36
2024-03-16T03:07:00.797Z,74.75
2024-03-16T03:08:00.808Z,75.77
2024-03-16T03:09:00.812Z,77.47
2024-03-16T03:10:00.867Z,78.69
2024-03-16T03:11:00.823Z,78.36
2024-03-16T03:12:00.798Z,78.46
2024-03-16T03:13:00.840Z,78.93
2024-03-16T03:14:00.797Z,78.96
2024-03-16T03:15:00.801Z,78.83
2024-03-16T03:16:00.862Z,79.21
2024-03-16T03:34:37.424Z,72.08
2024-03-16T03:35:10.367Z,71.98
2024-03-16T03:36:10.367Z,71.84
2024-03-16T03:37:10.416Z,71.89
2024-03-16T03:38:10.389Z,71.88
2024-03-16T03:41:46.103Z,71.52
2024-03-16T03:49:12.599Z,70.64
2024-03-16T03:49:45.165Z,70.79
2024-03-16T03:50:45.157Z,70.69
2024-03-16T03:53:18.993Z,70.95
2024-03-16T03:53:49.635Z,71.10
2024-03-16T03:55:17.669Z,71.37
2024-03-16T03:55:49.674Z,71.71
2024-03-16T04:03:42.809Z,72.39
2024-03-16T04:04:15.809Z,72.48
2024-03-16T04:05:15.761Z,72.43
2024-03-16T04:06:15.767Z,72.23
2024-03-16T04:07:15.861Z,72.06
2024-03-16T04:09:49.745Z,71.60
2024-03-16T04:10:20.129Z,71.45
2024-03-16T04:21:35.394Z,71.28
2024-03-16T04:22:06.552Z,70.74
2024-03-16T04:23:06.503Z,71.29
2024-03-16T04:25:37.916Z,72.35
2024-03-16T04:26:10.863Z,72.75
2024-03-16T04:27:10.884Z,72.87
2024-03-16T04:28:10.885Z,72.95
2024-03-16T04:29:12.599Z,72.61
2024-03-16T04:30:10.858Z,72.80
2024-03-16T04:33:46.735Z,73.34
2024-03-16T04:34:19.598Z,73.82
2024-03-16T04:38:59.662Z,74.39
2024-03-16T04:39:32.687Z,74.17
2024-03-16T04:40:32.681Z,74.11
2024-03-16T04:44:17.048Z,72.79
2024-03-16T04:44:41.376Z,72.53
2024-03-16T04:45:41.397Z,72.22
2024-03-16T04:48:20.819Z,72.03
2024-03-16T04:48:53.781Z,72.25
2024-03-16T04:49:53.753Z,72.39
2024-03-16T04:50:53.722Z,72.59
2024-03-16T04:55:51.131Z,72.90
2024-03-16T05:07:36.345Z,74.33
2024-03-16T05:08:09.310Z,74.15
2024-03-16T05:17:13.518Z,71.70
2024-03-16T05:17:46.574Z,71.67
2024-03-16T05:18:46.544Z,71.62
2024-03-16T05:19:46.506Z,71.44
2024-03-16T05:20:46.610Z,71.27
2024-03-16T05:21:46.543Z,71.15
2024-03-16T05:22:46.493Z,70.99
2024-03-16T05:23:46.508Z,70.88
2024-03-16T05:24:46.514Z,70.80
2024-03-16T05:25:46.515Z,70.75
2024-03-16T05:26:46.492Z,70.71
2024-03-16T05:27:46.558Z,70.51
2024-03-16T05:28:46.522Z,69.89
2024-03-16T05:29:46.544Z,69.37
2024-03-16T05:36:35.313Z,69.59
2024-03-16T05:37:08.273Z,69.64
2024-03-16T05:39:39.702Z,69.91
2024-03-16T05:40:12.639Z,70.04
2024-03-16T05:44:52.447Z,70.63
2024-03-16T05:45:25.622Z,70.63
2024-03-16T05:52:14.423Z,70.98
2024-03-16T05:52:47.381Z,70.82
2024-03-16T05:53:47.368Z,71.08
2024-03-16T05:54:47.391Z,71.02
2024-03-16T05:55:47.361Z,71.07
2024-03-16T05:57:14.388Z,71.16
2024-03-16T05:57:47.385Z,71.07
2024-03-16T05:58:47.370Z,71.23
2024-03-16T05:59:47.363Z,71.15
2024-03-16T06:00:47.377Z,71.11
2024-03-16T06:01:47.390Z,70.82
2024-03-16T06:02:47.386Z,70.70
2024-03-16T06:03:47.406Z,70.60
2024-03-16T06:04:47.389Z,70.45
2024-03-16T06:05:47.397Z,70.42
2024-03-16T06:06:47.433Z,70.14
2024-03-16T06:07:47.442Z,70.02
2024-03-16T06:08:47.373Z,70.97
2024-03-16T06:09:47.413Z,71.81
2024-03-16T06:10:47.403Z,71.97
2024-03-16T06:13:18.770Z,72.11
2024-03-16T06:13:51.722Z,72.11
2024-03-16T06:16:23.227Z,72.26
2024-03-16T06:18:29.962Z,72.42
2024-03-16T06:19:00.630Z,72.42
2024-03-16T06:20:00.594Z,72.58
2024-03-16T06:21:00.621Z,72.32
2024-03-16T06:23:32.352Z,71.89
2024-03-16T06:28:07.075Z,70.78
2024-03-16T06:28:37.124Z,70.61
2024-03-16T06:29:37.132Z,70.31
2024-03-16T06:30:37.202Z,70.51
2024-03-16T06:31:37.131Z,70.43
2024-03-16T06:32:37.114Z,70.25
2024-03-16T06:35:08.488Z,70.41
2024-03-16T06:35:41.468Z,70.59
2024-03-16T06:36:41.525Z,70.43
2024-03-16T06:37:41.468Z,70.65
2024-03-16T06:40:12.869Z,70.57
2024-03-16T06:40:45.802Z,70.21
2024-03-16T06:41:45.805Z,69.73
2024-03-16T06:42:45.866Z,69.85
2024-03-16T06:44:12.822Z,69.84
2024-03-16T06:44:45.820Z,69.70
2024-03-16T06:45:45.843Z,69.68
2024-03-16T06:46:45.799Z,69.55
2024-03-16T06:47:45.835Z,69.94
2024-03-16T06:48:45.823Z,70.68
2024-03-16T06:49:45.801Z,71.63
2024-03-16T06:50:45.810Z,71.16
2024-03-16T06:54:43.170Z,70.62
2024-03-16T06:55:13.572Z,70.30
2024-03-16T06:56:13.550Z,70.24
2024-03-16T06:57:13.588Z,70.36
2024-03-16T07:01:08.412Z,70.32
2024-03-16T07:03:12.692Z,70.56
2024-03-16T07:03:45.717Z,70.57
2024-03-16T07:04:45.659Z,70.70
2024-03-16T07:05:45.658Z,70.24
2024-03-16T07:09:21.369Z,70.21
2024-03-16T07:09:54.395Z,70.03
2024-03-16T07:12:25.726Z,69.82
2024-03-16T07:14:33.960Z,69.46
2024-03-16T07:17:38.596Z,69.63
2024-03-16T07:18:11.748Z,69.82
2024-03-16T07:26:04.823Z,71.92
2024-03-16T07:26:37.791Z,72.54
2024-03-16T07:27:37.824Z,73.04
2024-03-16T07:28:37.992Z,73.28
2024-03-16T07:29:37.793Z,72.54
2024-03-16T07:30:37.839Z,72.38
2024-03-16T07:31:37.795Z,72.66
2024-03-16T07:32:37.815Z,72.45
2024-03-16T07:33:37.831Z,72.56
2024-03-16T07:34:37.808Z,72.63
2024-03-16T07:35:37.798Z,73.03
2024-03-16T07:36:37.843Z,72.49
2024-03-16T07:37:37.818Z,72.30
2024-03-16T07:38:37.818Z,72.15
2024-03-16T07:39:37.861Z,71.64
2024-03-16T07:40:37.817Z,71.89
2024-03-16T07:42:04.834Z,71.47
2024-03-16T07:42:37.871Z,71.32
2024-03-16T07:43:37.841Z,71.06
2024-03-16T07:44:37.839Z,71.11
2024-03-16T07:45:37.875Z,70.86
2024-03-16T07:46:37.866Z,70.37
2024-03-16T07:50:12.696Z,69.79
2024-03-16T07:54:26.651Z,69.66
2024-03-16T07:54:59.636Z,69.54
2024-03-16T07:55:59.569Z,69.41
2024-03-16T08:06:24.332Z,72.07
2024-03-16T08:06:57.347Z,72.72
2024-03-16T08:07:57.298Z,73.64
2024-03-16T08:08:57.315Z,73.52
2024-03-16T08:20:14.115Z,72.66
2024-03-16T08:20:44.821Z,72.51
2024-03-16T08:21:44.860Z,72.28
2024-03-16T08:22:44.843Z,71.91
2024-03-16T08:23:44.833Z,71.61
2024-03-16T08:24:44.844Z,71.19
2024-03-16T08:25:44.827Z,71.03
2024-03-16T08:38:31.008Z,70.17
2024-03-16T08:39:29.075Z,69.69
2024-03-16T08:42:38.703Z,69.79
2024-03-16T08:43:38.427Z,69.72
2024-03-16T08:44:11.384Z,69.65
2024-03-16T08:45:11.475Z,69.52
2024-03-16T08:46:11.486Z,69.33
2024-03-16T09:06:27.159Z,68.85
2024-03-16T09:06:58.905Z,70.12
2024-03-16T09:07:57.827Z,70.19
2024-03-16T09:08:57.885Z,70.16
2024-03-16T09:09:57.910Z,71.40
2024-03-16T09:10:57.973Z,71.38
2024-03-16T09:11:58.006Z,71.24
2024-03-16T09:12:58.062Z,71.53
2024-03-16T09:13:58.079Z,71.22
2024-03-16T09:14:58.140Z,71.83
2024-03-16T09:17:32.086Z,70.39
2024-03-16T09:18:02.720Z,69.66
2024-03-16T09:22:18.192Z,68.80
2024-03-16T09:23:18.120Z,68.85
2024-03-16T09:24:18.105Z,68.82
2024-03-16T09:25:18.200Z,68.77
2024-03-16T09:26:18.119Z,68.37
2024-03-16T09:27:18.122Z,68.49
2024-03-16T09:28:18.207Z,68.64
2024-03-16T09:29:18.182Z,68.50
2024-03-16T09:31:51.978Z,68.82
2024-03-16T09:32:22.626Z,68.89
2024-03-16T09:33:22.676Z,68.40
2024-03-16T09:34:22.743Z,67.80
2024-03-16T09:35:22.753Z,68.89
2024-03-16T09:36:22.798Z,69.39
2024-03-16T09:37:22.851Z,68.74
2024-03-16T09:40:58.609Z,66.23
2024-03-16T09:41:31.595Z,66.97
2024-03-16T09:42:31.588Z,67.56
2024-03-16T09:43:31.594Z,66.82
2024-03-16T09:44:36.589Z,66.79
2024-03-16T09:47:02.970Z,66.73
2024-03-16T09:49:09.796Z,66.09
2024-03-16T09:49:40.410Z,66.06
2024-03-16T09:50:40.459Z,66.49
2024-03-16T09:57:36.732Z,65.89
2024-03-16T09:58:11.112Z,66.15
2024-03-16T09:59:22.070Z,65.75
2024-03-16T10:00:10.827Z,65.25
2024-03-16T10:11:16.273Z,65.53
2024-03-16T10:22:06.305Z,62.79
2024-03-16T10:22:38.923Z,62.60
2024-03-16T10:23:38.947Z,63.27
2024-03-16T10:24:38.956Z,62.20
2024-03-16T10:25:39.651Z,63.04
2024-03-16T10:26:38.937Z,62.57
2024-03-16T10:27:38.949Z,61.65
2024-03-16T10:28:38.919Z,61.60
2024-03-16T10:29:38.940Z,62.92
2024-03-16T10:30:38.955Z,62.43
2024-03-16T10:31:38.954Z,62.52
2024-03-16T10:32:38.933Z,62.17
2024-03-16T10:33:38.989Z,62.33
2024-03-16T10:34:38.958Z,61.09
2024-03-16T10:35:38.952Z,59.93
2024-03-16T10:36:38.960Z,61.30
2024-03-16T10:37:38.941Z,60.66
2024-03-16T10:38:38.952Z,61.84
2024-03-16T10:39:38.970Z,61.78
2024-03-16T10:40:38.930Z,61.47
2024-03-16T10:41:38.951Z,62.21
2024-03-16T10:42:39.001Z,62.80
2024-03-16T10:43:38.981Z,61.42
2024-03-16T10:44:38.944Z,58.49
2024-03-16T10:45:38.952Z,59.77
2024-03-16T10:48:10.306Z,60.56
2024-03-16T10:48:43.313Z,62.12
2024-03-16T10:49:43.318Z,61.15
2024-03-16T10:50:43.318Z,60.99
2024-03-16T10:51:43.322Z,61.16
2024-03-16T10:52:43.303Z,61.26
2024-03-16T10:57:22.076Z,60.54
2024-03-16T11:06:59.680Z,58.76
2024-03-16T11:07:31.104Z,59.15
2024-03-16T11:12:33.933Z,61.46
2024-03-16T11:13:11.514Z,62.28
2024-03-16T11:14:11.351Z,62.31
2024-03-16T11:15:11.342Z,62.79
2024-03-16T11:16:11.350Z,63.29
2024-03-16T11:17:11.341Z,64.10
2024-03-16T11:18:11.750Z,63.57
2024-03-16T11:19:11.351Z,64.89
2024-03-16T11:20:11.409Z,64.20
2024-03-16T11:21:11.355Z,65.90
2024-03-16T11:22:11.347Z,65.51
2024-03-16T11:23:11.353Z,66.19
2024-03-16T11:24:11.428Z,67.20
2024-03-16T11:25:12.038Z,68.12
2024-03-16T11:26:11.391Z,68.31
2024-03-16T11:27:11.368Z,69.52
2024-03-16T11:28:11.378Z,69.28
2024-03-16T11:29:11.382Z,68.11
2024-03-16T11:30:14.383Z,66.93
2024-03-16T11:31:12.375Z,67.70
2024-03-16T11:32:11.377Z,66.78
2024-03-16T11:33:11.374Z,67.39
2024-03-16T11:34:11.386Z,66.91
2024-03-16T11:35:11.382Z,66.65
2024-03-16T11:36:11.386Z,65.53
2024-03-16T11:37:11.388Z,64.46
2024-03-16T11:38:11.402Z,64.78
2024-03-16T11:39:11.384Z,64.50
2024-03-16T11:40:11.426Z,63.99
2024-03-16T11:41:11.387Z,65.12
2024-03-16T11:42:11.392Z,66.00
2024-03-16T11:43:11.386Z,65.73
2024-03-16T11:44:11.389Z,63.73
2024-03-16T11:45:11.434Z,64.03
2024-03-16T11:46:11.500Z,64.56
2024-03-16T11:47:11.541Z,62.58
2024-03-16T11:48:11.588Z,61.85
2024-03-16T11:49:11.636Z,61.83
2024-03-16T11:50:11.700Z,62.74
2024-03-16T11:51:11.713Z,62.00
2024-03-16T11:52:11.866Z,62.93
2024-03-16T11:53:11.820Z,61.75
2024-03-16T11:54:11.795Z,60.04
2024-03-16T11:55:11.832Z,60.94
2024-03-16T11:56:11.890Z,61.45
2024-03-16T11:57:11.962Z,60.66
2024-03-16T11:58:11.908Z,61.54
2024-03-16T11:59:11.964Z,61.75
2024-03-16T12:00:12.089Z,62.75
2024-03-16T12:01:12.066Z,63.68
2024-03-16T12:02:12.116Z,63.92
2024-03-16T12:03:12.196Z,63.40
2024-03-16T12:04:12.232Z,62.65
2024-03-16T12:05:12.287Z,62.37
2024-03-16T12:06:12.313Z,60.65
2024-03-16T12:07:12.319Z,60.60
2024-03-16T12:08:12.397Z,58.73
2024-03-16T12:09:12.433Z,58.59
2024-03-16T12:10:12.486Z,58.66
2024-03-16T12:11:12.516Z,59.07
2024-03-16T12:12:12.561Z,59.02
2024-03-16T12:13:12.567Z,59.27
2024-03-16T12:14:12.623Z,58.52
2024-03-16T12:15:12.642Z,59.39
2024-03-16T12:16:12.693Z,59.13
2024-03-16T12:17:12.720Z,60.04
2024-03-16T12:18:12.769Z,58.20
2024-03-16T12:19:12.803Z,57.39
2024-03-16T12:20:12.831Z,58.94
2024-03-16T12:21:12.865Z,58.98
2024-03-16T12:22:12.944Z,57.32
2024-03-16T12:23:12.955Z,56.96
2024-03-16T12:24:12.968Z,55.02
2024-03-16T12:25:13.024Z,56.24
2024-03-16T12:26:13.070Z,54.50
2024-03-16T12:27:13.101Z,55.96
2024-03-16T12:28:13.190Z,55.73
2024-03-16T12:29:13.172Z,53.65
2024-03-16T12:30:13.228Z,54.76
2024-03-16T12:31:13.249Z,54.44
2024-03-16T12:32:13.275Z,54.26
2024-03-16T12:33:13.299Z,52.97
2024-03-16T12:34:14.340Z,53.16
2024-03-16T12:35:13.338Z,52.67
2024-03-16T12:36:13.387Z,53.72
2024-03-16T12:37:13.416Z,53.06
2024-03-16T12:38:13.493Z,53.54
2024-03-16T12:39:13.502Z,53.85
2024-03-16T12:40:13.523Z,53.83
2024-03-16T12:41:13.537Z,52.85
2024-03-16T12:42:13.588Z,52.97
2024-03-16T12:43:23.635Z,53.78
2024-03-16T12:44:13.612Z,54.45
2024-03-16T12:45:13.610Z,55.76
2024-03-16T12:46:13.614Z,53.25
2024-03-16T12:47:13.619Z,53.86
2024-03-16T12:48:13.629Z,53.71
2024-03-16T12:49:13.614Z,53.09
2024-03-16T12:50:13.645Z,52.57
2024-03-16T12:51:13.617Z,53.08
2024-03-16T12:52:13.632Z,54.34
2024-03-16T12:53:13.619Z,57.85
2024-03-16T12:54:13.634Z,58.39
2024-03-16T12:55:13.627Z,58.57
2024-03-16T12:56:13.629Z,58.99
2024-03-16T12:57:13.630Z,59.73
2024-03-16T12:58:13.640Z,58.87
2024-03-16T12:59:13.644Z,59.51
2024-03-16T13:00:13.657Z,57.37
2024-03-16T13:01:13.635Z,56.65
2024-03-16T13:02:13.635Z,56.31
2024-03-16T13:03:13.652Z,55.30
2024-03-16T13:04:13.645Z,55.89
2024-03-16T13:05:13.646Z,55.20
2024-03-16T13:06:13.654Z,56.31
2024-03-16T13:07:13.645Z,56.43
2024-03-16T13:08:13.663Z,55.70
2024-03-16T13:09:13.749Z,55.41
2024-03-16T13:10:13.650Z,55.38
2024-03-16T13:11:13.672Z,55.40
2024-03-16T13:12:13.654Z,56.88
2024-03-16T13:13:13.652Z,55.41
2024-03-16T13:14:13.650Z,55.81
2024-03-16T13:15:13.696Z,55.94
2024-03-16T13:16:13.711Z,56.38
2024-03-16T13:17:13.779Z,55.70
2024-03-16T13:18:13.691Z,56.11
2024-03-16T13:19:13.656Z,54.75
2024-03-16T13:20:13.675Z,54.09
2024-03-16T13:21:13.665Z,54.89
2024-03-16T13:22:13.716Z,54.31
2024-03-16T13:23:13.715Z,54.70
2024-03-16T13:24:13.786Z,54.81
2024-03-16T13:25:14.108Z,54.83
2024-03-16T13:26:13.930Z,54.97
2024-03-16T13:27:13.978Z,54.73
2024-03-16T13:28:13.968Z,55.33
2024-03-16T13:29:14.017Z,54.87
2024-03-16T13:30:14.050Z,54.89
2024-03-16T13:31:14.150Z,53.29
2024-03-16T13:32:14.132Z,53.00
2024-03-16T13:33:14.193Z,53.70
2024-03-16T13:34:14.214Z,54.50
2024-03-16T13:35:14.257Z,54.05
2024-03-16T13:36:14.298Z,54.09
2024-03-16T13:37:15.736Z,53.72
2024-03-16T13:38:14.358Z,54.07
2024-03-16T13:39:14.383Z,52.91
2024-03-16T13:40:14.375Z,53.69
2024-03-16T13:41:14.399Z,51.63
2024-03-16T13:42:14.406Z,51.90
2024-03-16T13:43:14.381Z,52.65
2024-03-16T13:44:14.364Z,51.09
2024-03-16T13:45:14.454Z,51.07
2024-03-16T13:46:14.371Z,51.28
2024-03-16T13:47:14.440Z,52.14
2024-03-16T13:48:14.364Z,51.39
2024-03-16T13:49:14.386Z,52.31
2024-03-16T13:50:14.370Z,52.21
2024-03-16T13:51:19.173Z,51.48
2024-03-16T13:52:15.379Z,51.06
2024-03-16T13:53:14.377Z,52.29
2024-03-16T13:54:21.659Z,51.82
2024-03-16T13:55:21.637Z,51.79
2024-03-16T13:56:21.662Z,50.98
2024-03-16T13:57:21.625Z,50.76
2024-03-16T13:58:21.659Z,50.81
2024-03-16T13:59:21.701Z,51.90
2024-03-16T14:00:21.707Z,52.55
2024-03-16T14:01:21.666Z,53.46
2024-03-16T14:02:21.648Z,52.25
2024-03-16T14:03:21.658Z,51.62
2024-03-16T14:04:21.756Z,51.48
2024-03-16T14:05:21.645Z,52.04
2024-03-16T14:06:21.645Z,49.54
2024-03-16T14:07:21.646Z,50.02
2024-03-16T14:08:21.658Z,49.24
2024-03-16T14:09:21.662Z,48.52
2024-03-16T14:10:21.675Z,47.12
2024-03-16T14:11:21.721Z,47.05
2024-03-16T14:12:21.684Z,48.04
2024-03-16T14:13:21.664Z,49.31
2024-03-16T14:14:21.691Z,48.28
2024-03-16T14:15:21.674Z,48.27
2024-03-16T14:16:21.678Z,48.73
2024-03-16T14:17:21.669Z,50.14
2024-03-16T14:18:21.718Z,49.11
2024-03-16T14:19:21.671Z,48.63
2024-03-16T14:20:21.681Z,49.99
2024-03-16T14:21:21.680Z,49.49
2024-03-16T14:22:21.686Z,50.17
2024-03-16T14:23:21.667Z,50.96
2024-03-16T14:24:21.697Z,51.78
2024-03-16T14:25:21.668Z,51.93
2024-03-16T14:26:21.677Z,52.50
2024-03-16T14:27:21.677Z,51.96
2024-03-16T14:28:21.791Z,52.92
2024-03-16T14:29:21.671Z,51.49
2024-03-16T14:30:21.739Z,52.65
2024-03-16T14:31:21.740Z,52.67
2024-03-16T14:32:21.688Z,52.14
2024-03-16T14:33:21.732Z,51.68
2024-03-16T14:34:21.686Z,51.63
2024-03-16T14:35:21.679Z,51.76
2024-03-16T14:36:21.690Z,51.49
2024-03-16T14:37:21.728Z,51.45
2024-03-16T14:38:21.696Z,50.90
2024-03-16T14:39:21.705Z,51.29
2024-03-16T14:40:21.713Z,52.82
2024-03-16T14:41:21.688Z,49.95
2024-03-16T14:42:21.779Z,48.39
2024-03-16T14:43:21.692Z,49.74
2024-03-16T14:44:21.697Z,50.46
2024-03-16T14:45:21.698Z,49.57
2024-03-16T14:46:21.730Z,49.40
2024-03-16T14:47:21.701Z,50.18
2024-03-16T14:48:21.718Z,49.95
2024-03-16T14:49:21.707Z,50.25
2024-03-16T14:50:21.726Z,50.05
2024-03-16T14:51:21.705Z,50.68
2024-03-16T14:52:21.713Z,49.26
2024-03-16T14:53:21.710Z,49.06
2024-03-16T14:54:21.721Z,49.33
2024-03-16T14:55:21.807Z,50.13
2024-03-16T14:56:21.722Z,50.40
2024-03-16T14:57:21.728Z,49.44
2024-03-16T14:58:21.786Z,50.62
2024-03-16T14:59:21.875Z,49.48
2024-03-16T15:00:21.831Z,50.12
2024-03-16T15:01:21.860Z,50.03
2024-03-16T15:02:21.858Z,49.49
2024-03-16T15:03:21.883Z,49.61
2024-03-16T15:04:21.951Z,49.25
2024-03-16T15:05:21.982Z,48.57
2024-03-16T15:06:22.132Z,49.46
2024-03-16T15:07:22.108Z,49.73
2024-03-16T15:08:22.204Z,48.93
2024-03-16T15:09:22.229Z,44.91
2024-03-16T15:10:22.283Z,45.34
2024-03-16T15:11:22.357Z,45.81
2024-03-16T15:12:22.399Z,46.48
2024-03-16T15:13:22.463Z,45.37
2024-03-16T15:14:23.941Z,46.02
2024-03-16T15:15:22.540Z,45.56
2024-03-16T15:16:22.558Z,45.58
2024-03-16T15:17:22.570Z,46.70
2024-03-16T15:18:22.559Z,46.32
2024-03-16T15:19:24.283Z,46.25
2024-03-16T15:20:22.623Z,47.00
2024-03-16T15:21:22.626Z,48.03
2024-03-16T15:22:22.644Z,47.46
2024-03-16T15:23:22.689Z,46.39
2024-03-16T15:24:22.763Z,47.12
2024-03-16T15:25:22.812Z,45.80
2024-03-16T15:26:22.879Z,46.75
2024-03-16T15:27:22.859Z,47.07
2024-03-16T15:28:22.874Z,48.18
2024-03-16T15:29:22.894Z,46.90
2024-03-16T15:30:56.789Z,47.26
2024-03-16T15:31:22.900Z,45.97
2024-03-16T15:32:22.911Z,46.88
2024-03-16T15:33:23.004Z,46.49
2024-03-16T15:34:22.926Z,46.36
2024-03-16T15:35:22.922Z,45.29
2024-03-16T15:36:22.943Z,47.02
2024-03-16T15:37:22.948Z,46.30
2024-03-16T15:38:22.926Z,45.59
2024-03-16T15:39:22.918Z,45.54
2024-03-16T15:40:22.939Z,46.50
2024-03-16T15:41:22.915Z,45.21
2024-03-16T15:42:22.927Z,44.15
2024-03-16T15:43:22.932Z,44.88
2024-03-16T15:44:22.930Z,44.10
2024-03-16T15:45:22.946Z,43.86
2024-03-16T15:46:22.993Z,44.13
2024-03-16T15:47:22.931Z,44.62
2024-03-16T15:48:22.955Z,53.77
2024-03-16T15:49:23.923Z,54.43
2024-03-16T15:50:22.935Z,57.41
2024-03-16T15:51:22.933Z,54.16
2024-03-16T15:52:22.948Z,53.19
2024-03-16T15:53:22.944Z,53.60
2024-03-16T15:54:22.945Z,52.46
2024-03-16T15:55:22.939Z,50.50
2024-03-16T15:56:22.954Z,49.18
2024-03-16T15:57:22.954Z,48.43
2024-03-16T15:58:22.948Z,49.15
2024-03-16T15:59:22.946Z,49.98
2024-03-16T16:00:22.953Z,50.49
2024-03-16T16:01:22.940Z,51.15
2024-03-16T16:02:22.968Z,51.25
2024-03-16T16:03:22.958Z,53.92
2024-03-16T16:04:22.972Z,54.09
2024-03-16T16:05:22.976Z,55.23
2024-03-16T16:06:22.992Z,57.64
2024-03-16T16:07:22.969Z,56.59
2024-03-16T16:08:23.011Z,58.03
2024-03-16T16:09:22.969Z,59.84
2024-03-16T16:10:22.973Z,59.73
2024-03-16T16:11:22.991Z,60.50
2024-03-16T16:12:22.989Z,61.82
2024-03-16T16:13:22.981Z,61.63
2024-03-16T16:14:22.987Z,62.76
2024-03-16T16:15:22.985Z,60.54
2024-03-16T16:16:22.992Z,61.49
2024-03-16T16:17:22.997Z,61.04
2024-03-16T16:18:23.008Z,61.99
2024-03-16T16:19:22.995Z,61.57
2024-03-16T16:20:22.994Z,61.24
2024-03-16T16:21:23.047Z,61.98
2024-03-16T16:22:23.111Z,61.41
2024-03-16T16:23:23.138Z,63.44
2024-03-16T16:24:23.172Z,64.41
2024-03-16T16:25:23.222Z,62.10
2024-03-16T16:26:23.289Z,62.16
2024-03-16T16:27:23.312Z,60.49
2024-03-16T16:28:23.360Z,60.24
2024-03-16T16:29:23.407Z,60.28
2024-03-16T16:30:23.588Z,59.85
2024-03-16T16:31:23.542Z,59.41
2024-03-16T16:32:23.579Z,58.53
2024-03-16T16:33:23.614Z,58.32
2024-03-16T16:34:23.686Z,57.81
2024-03-16T16:35:23.710Z,57.41
2024-03-16T16:36:23.765Z,58.08
2024-03-16T16:37:23.806Z,57.78
2024-03-16T16:38:23.867Z,57.38
2024-03-16T16:39:23.925Z,57.15
2024-03-16T16:40:23.996Z,56.40
2024-03-16T16:41:24.721Z,54.78
2024-03-16T16:42:24.046Z,52.80
2024-03-16T16:43:24.091Z,54.20
2024-03-16T16:44:24.111Z,54.45
2024-03-16T16:45:24.146Z,54.80
2024-03-16T16:46:24.181Z,54.34
2024-03-16T16:47:24.213Z,54.21
2024-03-16T16:48:24.278Z,54.39
2024-03-16T16:49:24.324Z,53.81
2024-03-16T16:50:24.355Z,55.26
2024-03-16T16:51:24.426Z,55.76
2024-03-16T16:52:24.461Z,55.62
2024-03-16T16:53:24.532Z,54.77
2024-03-16T16:54:24.576Z,53.83
2024-03-16T16:55:24.662Z,56.40
2024-03-16T16:56:24.598Z,56.61
2024-03-16T16:57:24.625Z,57.67
2024-03-16T16:58:25.229Z,58.00
2024-03-16T16:59:24.715Z,58.86
2024-03-16T17:00:24.839Z,61.33
2024-03-16T17:01:24.858Z,62.13
2024-03-16T17:02:24.920Z,62.87
2024-03-16T17:03:24.942Z,63.05
2024-03-16T17:04:24.996Z,62.88
2024-03-16T17:05:25.037Z,63.31
2024-03-16T17:06:25.086Z,63.36
2024-03-16T17:07:25.141Z,64.47
2024-03-16T17:08:25.206Z,64.54
2024-03-16T17:09:25.220Z,64.35
2024-03-16T17:10:25.275Z,65.04
2024-03-16T17:11:25.326Z,64.61
2024-03-16T17:12:25.344Z,65.08
2024-03-16T17:13:25.409Z,65.61
2024-03-16T17:14:25.441Z,64.83
2024-03-16T17:15:25.477Z,67.08
2024-03-16T17:16:25.515Z,65.57
2024-03-16T17:17:25.553Z,64.58
2024-03-16T17:18:25.575Z,64.79
2024-03-16T17:19:25.671Z,64.88
2024-03-16T17:20:25.697Z,63.61
2024-03-16T17:21:25.734Z,63.69
2024-03-16T17:22:25.761Z,63.48
2024-03-16T17:23:25.792Z,64.16
2024-03-16T17:24:25.817Z,63.99
2024-03-16T17:25:25.856Z,63.59
2024-03-16T17:26:25.873Z,64.01
2024-03-16T17:27:26.481Z,63.40
2024-03-16T17:28:25.948Z,63.66
2024-03-16T17:29:25.976Z,63.70
2024-03-16T17:30:26.025Z,63.59
2024-03-16T17:31:26.041Z,63.11
2024-03-16T17:32:26.112Z,62.88
2024-03-16T17:33:26.129Z,62.89
2024-03-16T17:34:26.149Z,62.66
2024-03-16T17:35:26.193Z,63.27
2024-03-16T17:36:26.229Z,63.43
2024-03-16T17:37:26.263Z,63.85
2024-03-16T17:38:26.298Z,63.31
2024-03-16T17:39:27.749Z,63.58
2024-03-16T17:40:26.417Z,64.41
2024-03-16T17:41:26.466Z,63.37
2024-03-16T17:42:26.521Z,61.91
2024-03-16T17:43:26.789Z,62.43
2024-03-16T17:44:26.594Z,62.34
2024-03-16T17:45:26.617Z,62.30
2024-03-16T17:46:26.653Z,62.08
2024-03-16T17:47:26.670Z,62.23
2024-03-16T17:48:26.698Z,62.14
2024-03-16T17:49:26.740Z,62.42
2024-03-16T17:50:26.777Z,62.56
2024-03-16T17:51:26.827Z,63.00
2024-03-16T17:52:26.893Z,62.93
2024-03-16T17:53:26.913Z,62.95
2024-03-16T17:54:27.754Z,62.94
2024-03-16T17:55:27.016Z,62.99
2024-03-16T17:56:27.043Z,63.12
2024-03-16T17:57:27.106Z,63.25
2024-03-16T17:58:27.173Z,63.11
2024-03-16T17:59:27.187Z,63.29
2024-03-16T18:00:27.246Z,62.92
2024-03-16T18:01:27.266Z,62.92
2024-03-16T18:02:27.320Z,62.63
2024-03-16T18:03:27.336Z,62.56
2024-03-16T18:04:27.397Z,62.64
2024-03-16T18:05:27.476Z,62.77
2024-03-16T18:06:27.501Z,62.88
2024-03-16T18:07:27.524Z,63.06
2024-03-16T18:08:27.562Z,63.13
2024-03-16T18:09:27.599Z,63.18
2024-03-16T18:10:27.694Z,62.75
2024-03-16T18:11:27.636Z,62.37
2024-03-16T18:12:27.700Z,62.49
2024-03-16T18:13:27.707Z,62.48
2024-03-16T18:14:28.776Z,62.63
2024-03-16T18:15:27.774Z,62.75
2024-03-16T18:16:30.875Z,62.78